createdAt,value
2022-12-01T00:00:27.113Z,100.00
2022-12-01T00:01:29.993Z,100.00
2022-12-01T00:02:33.163Z,100.00
2022-12-01T00:03:37.444Z,100.00
2022-12-01T00:04:40.982Z,100.00
2022-12-01T00:05:43.606Z,100.00
2022-12-01T00:06:46.852Z,100.00
2022-12-01T00:07:50.047Z,100.00
2022-12-01T00:09:16.506Z,100.00
2022-12-01T00:10:26.125Z,100.00
2022-12-01T00:11:29.246Z,100.00
2022-12-01T00:12:32.117Z,100.00
2022-12-01T00:13:35.127Z,100.00
2022-12-01T00:14:38.058Z,100.00
2022-12-01T00:15:40.606Z,100.00
2022-12-01T00:16:44.676Z,100.00
2022-12-01T00:17:49.006Z,100.00
2022-12-01T00:18:53.047Z,100.00
2022-12-01T00:19:56.398Z,100.00
2022-12-01T00:20:58.942Z,100.00
2022-12-01T00:22:02.030Z,100.00
2022-12-01T00:23:04.896Z,100.00
2022-12-01T00:24:07.946Z,100.00
2022-12-01T00:25:11.317Z,100.00
2022-12-01T00:26:14.522Z,100.00
2022-12-01T00:27:18.259Z,100.00
2022-12-01T00:28:21.674Z,100.00
2022-12-01T00:29:25.110Z,100.00
2022-12-01T00:30:27.697Z,100.00
2022-12-01T00:31:30.638Z,100.00
2022-12-01T00:32:33.298Z,100.00
2022-12-01T00:33:36.715Z,100.00
2022-12-01T00:34:39.941Z,100.00
2022-12-01T00:35:43.299Z,100.00
2022-12-01T00:36:46.108Z,100.00
2022-12-01T00:37:49.041Z,100.00
2022-12-01T00:38:54.859Z,100.00
2022-12-01T00:39:58.675Z,100.00
2022-12-01T00:45:23.541Z,100.00
2022-12-01T00:46:26.930Z,100.00
2022-12-01T00:47:29.790Z,100.00
2022-12-01T00:50:39.099Z,100.00
2022-12-01T00:51:42.052Z,100.00
2022-12-01T00:55:10.279Z,100.00
2022-12-01T00:56:13.045Z,100.00
2022-12-01T00:59:42.298Z,100.00
2022-12-01T01:00:44.907Z,100.00
2022-12-01T01:04:13.306Z,100.00
2022-12-01T01:05:16.128Z,100.00
2022-12-01T01:08:45.303Z,100.00
2022-12-01T01:09:48.317Z,100.00
2022-12-01T01:13:17.313Z,100.00
2022-12-01T01:14:20.720Z,100.00
2022-12-01T01:17:47.380Z,100.00
2022-12-01T01:18:50.422Z,100.00
2022-12-01T01:22:19.288Z,100.00
2022-12-01T01:23:21.827Z,100.00
2022-12-01T01:26:51.284Z,100.00
2022-12-01T01:27:53.939Z,100.00
2022-12-01T01:28:59.232Z,100.00
2022-12-01T01:30:02.120Z,100.00
2022-12-01T01:31:22.422Z,100.00
2022-12-01T01:32:25.175Z,100.00
2022-12-01T01:33:27.783Z,100.00
2022-12-01T01:36:36.048Z,100.00
2022-12-01T01:37:40.355Z,100.00
2022-12-01T01:42:12.803Z,100.00
2022-12-01T01:45:42.309Z,100.00
2022-12-01T01:46:44.920Z,100.00
2022-12-01T01:50:14.297Z,100.00
2022-12-01T01:51:22.560Z,100.00
2022-12-01T01:54:44.406Z,100.00
2022-12-01T01:55:47.069Z,100.00
2022-12-01T01:59:16.275Z,100.00
2022-12-01T02:00:20.551Z,100.00
2022-12-01T02:03:46.410Z,100.00
2022-12-01T02:04:56.043Z,100.00
2022-12-01T02:08:17.175Z,100.00
2022-12-01T02:09:19.955Z,100.00
2022-12-01T02:12:46.370Z,100.00
2022-12-01T02:14:04.393Z,100.00
2022-12-01T02:15:27.570Z,100.00
2022-12-01T02:16:55.202Z,100.00
2022-12-01T02:18:25.609Z,100.00
2022-12-01T02:20:14.030Z,100.00
2022-12-01T02:21:19.490Z,100.00
2022-12-01T02:27:13.128Z,100.00
2022-12-01T02:28:18.650Z,100.00
2022-12-01T02:31:39.270Z,100.00
2022-12-01T02:32:49.125Z,100.00
2022-12-01T02:36:46.729Z,100.00
2022-12-01T02:41:57.001Z,100.00
2022-12-01T02:43:20.840Z,100.00
2022-12-01T02:44:35.037Z,100.00
2022-12-01T02:45:46.191Z,100.00
2022-12-01T02:46:56.161Z,100.00
2022-12-01T02:50:17.449Z,100.00
2022-12-01T02:51:25.287Z,100.00
2022-12-01T02:54:47.444Z,100.00
2022-12-01T02:55:53.485Z,100.00
2022-12-01T02:59:17.385Z,100.00
2022-12-01T03:00:20.084Z,100.00
2022-12-01T03:03:49.273Z,100.00
2022-12-01T03:09:14.209Z,100.00
2022-12-01T03:10:29.992Z,100.00
2022-12-01T03:13:40.956Z,100.00
2022-12-01T03:15:02.172Z,100.00
2022-12-01T03:18:44.908Z,100.00
2022-12-01T03:19:54.125Z,100.00
2022-12-01T03:21:08.286Z,100.00
2022-12-01T03:22:52.364Z,100.00
2022-12-01T03:24:02.385Z,100.00
2022-12-01T03:27:29.966Z,100.00
2022-12-01T03:28:38.279Z,100.00
2022-12-01T03:32:00.169Z,100.00
2022-12-01T03:37:22.018Z,100.00
2022-12-01T03:42:27.461Z,100.00
2022-12-01T03:43:34.451Z,100.00
2022-12-01T03:46:55.080Z,100.00
2022-12-01T03:47:57.744Z,100.00
2022-12-01T03:51:21.817Z,100.00
2022-12-01T03:56:56.490Z,100.00
2022-12-01T04:00:15.858Z,100.00
2022-12-01T04:01:19.390Z,100.00
2022-12-01T04:02:25.500Z,100.00
2022-12-01T04:03:28.394Z,100.00
2022-12-01T04:04:45.374Z,100.00
2022-12-01T04:05:48.035Z,100.00
2022-12-01T04:06:51.248Z,100.00
2022-12-01T04:09:59.891Z,100.00
2022-12-01T04:15:08.259Z,100.00
2022-12-01T04:16:11.109Z,100.00
2022-12-01T04:17:13.823Z,100.00
2022-12-01T04:20:22.457Z,100.00
2022-12-01T04:21:25.327Z,100.00
2022-12-01T04:25:59.077Z,100.00
2022-12-01T04:27:01.988Z,100.00
2022-12-01T04:28:04.798Z,100.00
2022-12-01T04:29:21.348Z,100.00
2022-12-01T04:30:24.024Z,100.00
2022-12-01T04:31:26.926Z,100.00
2022-12-01T04:34:23.187Z,100.00
2022-12-01T04:35:25.763Z,100.00
2022-12-01T04:39:53.924Z,100.00
2022-12-01T04:44:24.473Z,100.00
2022-12-01T04:49:10.183Z,100.00
2022-12-01T04:52:23.390Z,100.00
2022-12-01T04:53:26.353Z,100.00
2022-12-01T04:54:29.017Z,100.00
2022-12-01T04:57:25.136Z,100.00
2022-12-01T04:58:29.850Z,100.00
2022-12-01T05:02:56.556Z,100.00
2022-12-01T05:07:26.828Z,100.00
2022-12-01T05:12:14.513Z,100.00
2022-12-01T05:15:27.341Z,100.00
2022-12-01T05:16:32.574Z,100.00
2022-12-01T05:17:37.053Z,100.00
2022-12-01T05:18:40.865Z,100.00
2022-12-01T05:20:16.232Z,100.00
2022-12-01T05:21:18.954Z,100.00
2022-12-01T05:24:27.386Z,100.00
2022-12-01T05:25:30.796Z,100.00
2022-12-01T05:26:33.784Z,100.00
2022-12-01T05:29:33.054Z,100.00
2022-12-01T05:30:35.953Z,100.00
2022-12-01T05:35:02.314Z,100.00
2022-12-01T05:39:33.765Z,100.00
2022-12-01T05:44:06.961Z,100.00
2022-12-01T05:48:35.028Z,100.00
2022-12-01T05:49:38.079Z,100.00
2022-12-01T05:52:35.457Z,100.00
2022-12-01T05:53:38.311Z,100.00
2022-12-01T05:58:22.126Z,100.00
2022-12-01T06:01:35.444Z,100.00
2022-12-01T06:02:42.417Z,100.00
2022-12-01T06:07:06.770Z,100.00
2022-12-01T06:08:09.774Z,100.00
2022-12-01T06:11:06.178Z,100.00
2022-12-01T06:12:08.730Z,100.00
2022-12-01T06:16:38.475Z,100.00
2022-12-01T06:21:08.813Z,100.00
2022-12-01T06:22:11.819Z,100.00
2022-12-01T06:23:14.501Z,100.00
2022-12-01T06:24:17.483Z,100.00
2022-12-01T06:25:20.250Z,100.00
2022-12-01T06:26:25.415Z,100.00
2022-12-01T06:27:29.155Z,100.00
2022-12-01T06:28:31.788Z,100.00
2022-12-01T06:29:39.053Z,100.00
2022-12-01T06:30:45.616Z,100.00
2022-12-01T06:31:49.313Z,100.00
2022-12-01T06:32:52.324Z,100.00
2022-12-01T06:33:54.872Z,100.00
2022-12-01T06:34:57.948Z,100.00
2022-12-01T06:36:05.887Z,100.00
2022-12-01T06:37:08.775Z,100.00
2022-12-01T06:38:11.851Z,100.00
2022-12-01T06:39:17.677Z,100.00
2022-12-01T06:40:20.523Z,100.00
2022-12-01T06:41:23.496Z,100.00
2022-12-01T06:42:29.902Z,100.00
2022-12-01T06:43:32.588Z,100.00
2022-12-01T06:44:35.105Z,100.00
2022-12-01T06:45:38.283Z,100.00
2022-12-01T06:46:41.291Z,100.00
2022-12-01T06:47:44.296Z,100.00
2022-12-01T06:48:49.184Z,100.00
2022-12-01T06:49:52.047Z,100.00
2022-12-01T06:51:01.128Z,100.00
2022-12-01T06:52:05.192Z,100.00
2022-12-01T06:53:08.600Z,100.00
2022-12-01T06:54:12.758Z,100.00
2022-12-01T06:55:16.231Z,100.00
2022-12-01T06:56:18.920Z,100.00
2022-12-01T06:57:22.265Z,100.00
2022-12-01T06:58:25.725Z,100.00
2022-12-01T06:59:29.141Z,100.00
2022-12-01T07:00:32.428Z,100.00
2022-12-01T07:01:35.164Z,100.00
2022-12-01T07:02:39.209Z,100.00
2022-12-01T07:03:42.975Z,100.00
2022-12-01T07:04:45.490Z,100.00
2022-12-01T07:06:01.876Z,100.00
2022-12-01T07:07:08.002Z,100.00
2022-12-01T07:08:12.490Z,100.00
2022-12-01T07:09:15.388Z,100.00
2022-12-01T07:10:18.674Z,100.00
2022-12-01T07:11:21.261Z,100.00
2022-12-01T07:12:23.941Z,100.00
2022-12-01T07:13:32.772Z,100.00
2022-12-01T07:14:36.571Z,100.00
2022-12-01T07:15:40.562Z,100.00
2022-12-01T07:16:43.596Z,100.00
2022-12-01T07:17:46.241Z,100.00
2022-12-01T07:18:49.496Z,100.00
2022-12-01T07:19:52.349Z,100.00
2022-12-01T07:21:02.354Z,100.00
2022-12-01T07:22:05.016Z,100.00
2022-12-01T07:23:07.567Z,100.00
2022-12-01T07:24:12.629Z,100.00
2022-12-01T07:25:15.484Z,100.00
2022-12-01T07:26:18.767Z,100.00
2022-12-01T07:27:21.587Z,100.00
2022-12-01T07:28:24.176Z,100.00
2022-12-01T07:29:26.780Z,100.00
2022-12-01T07:30:30.363Z,100.00
2022-12-01T07:31:33.079Z,100.00
2022-12-01T07:32:35.801Z,100.00
2022-12-01T07:33:38.754Z,100.00
2022-12-01T07:34:41.838Z,100.00
2022-12-01T07:35:44.682Z,100.00
2022-12-01T07:36:47.322Z,100.00
2022-12-01T07:37:56.849Z,100.00
2022-12-01T07:39:00.682Z,100.00
2022-12-01T07:40:03.508Z,100.00
2022-12-01T07:41:14.668Z,100.00
2022-12-01T07:42:17.242Z,100.00
2022-12-01T07:43:19.956Z,100.00
2022-12-01T07:44:22.574Z,100.00
2022-12-01T07:45:25.345Z,100.00
2022-12-01T07:46:29.588Z,100.00
2022-12-01T07:47:32.659Z,100.00
2022-12-01T07:48:37.349Z,100.00
2022-12-01T07:49:39.997Z,100.00
2022-12-01T07:50:42.636Z,100.00
2022-12-01T07:51:46.016Z,100.00
2022-12-01T07:52:51.686Z,100.00
2022-12-01T07:53:54.558Z,100.00
2022-12-01T07:54:57.389Z,100.00
2022-12-01T07:56:03.131Z,100.00
2022-12-01T07:57:09.938Z,100.00
2022-12-01T07:58:13.054Z,100.00
2022-12-01T07:59:15.694Z,100.00
2022-12-01T08:00:18.964Z,100.00
2022-12-01T08:01:24.899Z,100.00
2022-12-01T08:02:28.085Z,100.00
2022-12-01T08:03:33.829Z,100.00
2022-12-01T08:04:36.652Z,100.00
2022-12-01T08:05:39.743Z,100.00
2022-12-01T08:06:42.676Z,100.00
2022-12-01T08:07:45.309Z,100.00
2022-12-01T08:08:48.860Z,99.35
2022-12-01T08:09:51.743Z,99.09
2022-12-01T08:10:54.451Z,99.43
2022-12-01T08:11:57.590Z,99.69
2022-12-01T08:13:00.074Z,99.78
2022-12-01T08:14:02.971Z,99.62
2022-12-01T08:15:05.980Z,99.58
2022-12-01T08:16:13.660Z,99.57
2022-12-01T08:17:16.752Z,99.50
2022-12-01T08:18:19.457Z,99.48
2022-12-01T08:19:22.498Z,99.54
2022-12-01T08:20:25.176Z,98.72
2022-12-01T08:21:27.806Z,98.87
2022-12-01T08:22:31.039Z,99.07
2022-12-01T08:23:33.594Z,98.03
2022-12-01T08:24:36.383Z,98.06
2022-12-01T08:25:39.332Z,98.42
2022-12-01T08:26:41.973Z,97.76
2022-12-01T08:27:44.850Z,97.98
2022-12-01T08:28:48.476Z,97.74
2022-12-01T08:29:51.293Z,96.95
2022-12-01T08:30:54.191Z,97.19
2022-12-01T08:31:58.647Z,97.47
2022-12-01T08:33:01.513Z,96.79
2022-12-01T08:34:07.916Z,96.91
2022-12-01T08:35:10.653Z,96.90
2022-12-01T08:36:14.044Z,96.92
2022-12-01T08:37:16.619Z,96.96
2022-12-01T08:38:19.587Z,96.97
2022-12-01T08:39:22.766Z,97.08
2022-12-01T08:40:25.303Z,96.80
2022-12-01T08:41:28.602Z,96.57
2022-12-01T08:42:31.608Z,96.07
2022-12-01T08:45:02.375Z,95.91
2022-12-01T08:46:06.342Z,95.67
2022-12-01T08:47:10.162Z,96.02
2022-12-01T08:48:13.778Z,96.06
2022-12-01T08:49:16.681Z,95.55
2022-12-01T08:50:20.355Z,95.08
2022-12-01T08:51:23.336Z,95.41
2022-12-01T08:52:31.920Z,95.54
2022-12-01T08:53:38.313Z,95.14
2022-12-01T08:54:44.930Z,95.05
2022-12-01T08:55:48.169Z,95.33
2022-12-01T08:56:50.935Z,95.51
2022-12-01T08:57:54.123Z,95.05
2022-12-01T08:58:58.070Z,94.46
2022-12-01T09:00:00.954Z,93.90
2022-12-01T09:01:07.705Z,93.80
2022-12-01T09:02:16.105Z,94.21
2022-12-01T09:03:19.203Z,93.89
2022-12-01T09:04:24.647Z,93.33
2022-12-01T09:05:28.206Z,93.65
2022-12-01T09:06:42.158Z,93.27
2022-12-01T09:08:06.138Z,93.68
2022-12-01T09:09:10.934Z,92.95
2022-12-01T09:10:14.145Z,93.59
2022-12-01T09:11:19.327Z,93.32
2022-12-01T09:12:22.424Z,92.43
2022-12-01T09:13:26.043Z,92.46
2022-12-01T09:14:30.094Z,92.34
2022-12-01T09:15:32.636Z,91.75
2022-12-01T09:16:35.696Z,92.36
2022-12-01T09:17:39.622Z,92.13
2022-12-01T09:18:43.391Z,92.81
2022-12-01T09:19:46.390Z,92.04
2022-12-01T09:20:50.519Z,91.05
2022-12-01T09:21:53.386Z,91.67
2022-12-01T09:22:56.194Z,90.41
2022-12-01T09:24:00.529Z,90.17
2022-12-01T09:25:09.717Z,90.17
2022-12-01T09:26:14.007Z,90.67
2022-12-01T09:27:16.917Z,90.52
2022-12-01T09:28:20.238Z,90.26
2022-12-01T09:29:23.311Z,89.99
2022-12-01T09:30:26.049Z,89.43
2022-12-01T09:31:29.631Z,88.51
2022-12-01T09:32:32.556Z,87.62
2022-12-01T09:33:35.777Z,86.75
2022-12-01T09:34:38.642Z,85.38
2022-12-01T09:35:41.488Z,83.65
2022-12-01T09:36:45.010Z,82.37
2022-12-01T09:37:49.457Z,80.86
2022-12-01T09:38:52.287Z,80.15
2022-12-01T09:39:55.938Z,80.03
2022-12-01T09:41:02.618Z,79.58
2022-12-01T09:42:15.551Z,79.02
2022-12-01T09:43:26.034Z,78.13
2022-12-01T09:44:36.735Z,76.62
2022-12-01T09:45:44.362Z,75.43
2022-12-01T09:47:26.330Z,75.56
2022-12-01T09:48:34.646Z,74.86
2022-12-01T09:49:56.096Z,73.77
2022-12-01T09:50:58.737Z,74.03
2022-12-01T09:52:01.576Z,73.09
2022-12-01T09:53:08.582Z,72.97
2022-12-01T09:54:14.389Z,72.60
2022-12-01T09:55:21.048Z,72.26
2022-12-01T09:56:30.313Z,73.13
2022-12-01T09:57:38.546Z,72.68
2022-12-01T09:58:42.919Z,72.96
2022-12-01T09:59:46.768Z,73.20
2022-12-01T10:00:51.443Z,74.34
2022-12-01T10:02:00.304Z,73.58
2022-12-01T10:03:17.762Z,72.89
2022-12-01T10:04:40.609Z,72.72
2022-12-01T10:06:10.220Z,72.29
2022-12-01T10:07:38.084Z,71.65
2022-12-01T10:08:48.891Z,71.03
2022-12-01T10:09:54.900Z,70.13
2022-12-01T10:11:26.387Z,70.32
2022-12-01T10:12:35.080Z,69.46
2022-12-01T10:13:37.642Z,69.52
2022-12-01T10:14:41.177Z,69.77
2022-12-01T10:16:09.016Z,69.97
2022-12-01T10:17:30.451Z,69.63
2022-12-01T10:18:36.493Z,69.73
2022-12-01T10:19:42.665Z,70.02
2022-12-01T10:20:57.782Z,69.68
2022-12-01T10:22:48.423Z,69.55
2022-12-01T10:24:03.601Z,70.07
2022-12-01T10:25:08.651Z,69.78
2022-12-01T10:26:25.422Z,69.37
2022-12-01T10:27:44.130Z,69.47
2022-12-01T10:29:13.078Z,68.37
2022-12-01T10:30:18.915Z,68.91
2022-12-01T10:31:49.386Z,67.59
2022-12-01T10:32:53.653Z,67.90
2022-12-01T10:34:03.069Z,67.00
2022-12-01T10:35:05.905Z,66.67
2022-12-01T10:36:10.541Z,67.17
2022-12-01T10:37:18.935Z,68.30
2022-12-01T10:38:32.717Z,69.82
2022-12-01T10:39:39.250Z,73.19
2022-12-01T10:40:44.536Z,75.24
2022-12-01T10:41:49.157Z,76.75
2022-12-01T10:42:52.152Z,77.78
2022-12-01T10:44:00.879Z,79.00
2022-12-01T10:45:07.732Z,79.97
2022-12-01T10:46:24.413Z,80.92
2022-12-01T10:47:28.903Z,81.26
2022-12-01T10:48:31.961Z,79.54
2022-12-01T10:49:40.014Z,78.28
2022-12-01T10:50:57.107Z,77.20
2022-12-01T10:51:59.928Z,77.99
2022-12-01T10:53:04.180Z,79.39
2022-12-01T10:54:11.481Z,78.79
2022-12-01T10:55:23.097Z,79.31
2022-12-01T10:56:26.545Z,79.74
2022-12-01T10:57:31.144Z,80.33
2022-12-01T10:58:43.259Z,80.64
2022-12-01T10:59:48.913Z,80.15
2022-12-01T11:01:00.054Z,80.26
2022-12-01T11:02:19.697Z,80.82
2022-12-01T11:03:28.640Z,80.22
2022-12-01T11:04:46.694Z,80.34
2022-12-01T11:05:54.788Z,80.30
2022-12-01T11:06:58.115Z,80.06
2022-12-01T11:08:02.653Z,79.85
2022-12-01T11:09:21.528Z,79.65
2022-12-01T11:10:37.901Z,78.82
2022-12-01T11:11:41.034Z,78.87
2022-12-01T11:12:52.243Z,78.69
2022-12-01T11:13:56.908Z,77.90
2022-12-01T11:14:59.972Z,77.98
2022-12-01T11:16:06.574Z,78.54
2022-12-01T11:17:44.931Z,79.02
2022-12-01T11:18:47.679Z,78.73
2022-12-01T11:19:50.982Z,79.58
2022-12-01T11:21:15.173Z,79.99
2022-12-01T11:22:22.674Z,80.23
2022-12-01T11:23:28.527Z,81.50
2022-12-01T11:24:43.901Z,81.58
2022-12-01T11:26:14.724Z,81.48
2022-12-01T11:27:19.349Z,81.66
2022-12-01T11:30:42.302Z,82.11
2022-12-01T11:31:48.070Z,81.25
2022-12-01T11:35:12.338Z,80.95
2022-12-01T11:40:21.739Z,80.54
2022-12-01T11:41:29.935Z,81.30
2022-12-01T11:42:34.453Z,81.22
2022-12-01T11:45:19.162Z,81.02
2022-12-01T11:50:27.780Z,80.13
2022-12-01T11:51:37.762Z,80.51
2022-12-01T11:54:58.766Z,80.80
2022-12-01T12:04:59.076Z,79.88
2022-12-01T12:58:26.958Z,74.30
2022-12-01T13:00:06.399Z,73.96
2022-12-01T13:01:21.132Z,74.36
2022-12-01T13:02:38.450Z,73.42
2022-12-01T13:03:55.328Z,73.81
2022-12-01T13:05:36.379Z,74.32
2022-12-01T13:06:51.922Z,74.62
2022-12-01T13:08:00.421Z,74.86
2022-12-01T13:09:12.114Z,74.85
2022-12-01T13:10:36.987Z,74.76
2022-12-01T13:11:48.834Z,75.20
2022-12-01T13:13:13.057Z,74.87
2022-12-01T13:14:28.182Z,75.41
2022-12-01T13:15:34.376Z,75.06
2022-12-01T13:16:41.821Z,75.36
2022-12-01T13:18:01.095Z,75.74
2022-12-01T13:19:16.848Z,75.65
2022-12-01T13:20:25.222Z,76.76
2022-12-01T13:21:35.142Z,76.96
2022-12-01T13:22:38.098Z,76.96
2022-12-01T13:23:41.294Z,76.46
2022-12-01T13:24:44.264Z,77.15
2022-12-01T13:25:50.402Z,77.14
2022-12-01T13:27:08.233Z,77.80
2022-12-01T13:28:21.641Z,77.92
2022-12-01T13:29:25.858Z,78.57
2022-12-01T13:30:29.377Z,78.75
2022-12-01T13:31:43.951Z,78.67
2022-12-01T13:32:48.613Z,78.81
2022-12-01T13:34:05.868Z,79.48
2022-12-01T13:35:30.028Z,79.46
2022-12-01T13:36:49.184Z,79.47
2022-12-01T13:37:52.714Z,79.33
2022-12-01T13:39:18.965Z,79.14
2022-12-01T13:40:30.964Z,79.66
2022-12-01T13:41:38.682Z,79.98
2022-12-01T13:42:41.942Z,80.21
2022-12-01T13:44:27.196Z,80.30
2022-12-01T13:45:34.449Z,79.93
2022-12-01T13:46:37.228Z,79.79
2022-12-01T13:47:51.804Z,79.66
2022-12-01T13:48:57.369Z,79.66
2022-12-01T13:50:44.400Z,79.68
2022-12-01T13:52:29.139Z,79.86
2022-12-01T13:53:36.984Z,80.36
2022-12-01T13:54:59.497Z,80.24
2022-12-01T14:10:58.596Z,85.76
2022-12-01T14:12:05.832Z,85.75
2022-12-01T14:13:19.260Z,86.03
2022-12-01T14:14:26.398Z,86.15
2022-12-01T14:15:42.928Z,86.40
2022-12-01T14:16:53.057Z,86.70
2022-12-01T14:18:06.535Z,87.30
2022-12-01T14:19:25.116Z,87.85
2022-12-01T14:20:30.600Z,88.62
2022-12-01T14:21:49.872Z,88.89
2022-12-01T14:23:30.758Z,89.36
2022-12-01T14:24:41.604Z,89.86
2022-12-01T14:26:17.450Z,90.20
2022-12-01T14:27:42.267Z,90.48
2022-12-01T14:29:00.595Z,91.14
2022-12-01T14:30:42.152Z,91.51
2022-12-01T14:31:46.409Z,92.05
2022-12-01T14:32:49.185Z,92.36
2022-12-01T14:33:58.771Z,92.64
2022-12-01T14:35:04.209Z,93.03
2022-12-01T14:36:18.778Z,93.24
2022-12-01T14:37:26.258Z,93.54
2022-12-01T14:38:29.592Z,93.91
2022-12-01T14:39:35.677Z,94.20
2022-12-01T14:40:38.626Z,94.36
2022-12-01T14:41:46.963Z,94.55
2022-12-01T14:43:12.832Z,94.59
2022-12-01T14:44:33.985Z,94.69
2022-12-01T14:45:45.926Z,94.89
2022-12-01T14:46:58.478Z,95.03
2022-12-01T14:48:05.103Z,95.06
2022-12-01T14:49:16.033Z,95.24
2022-12-01T14:50:25.135Z,95.37
2022-12-01T14:51:34.057Z,95.49
2022-12-01T14:52:46.315Z,95.64
2022-12-01T14:53:52.525Z,95.75
2022-12-01T14:54:58.994Z,96.02
2022-12-01T14:56:10.809Z,96.07
2022-12-01T14:57:17.932Z,96.23
2022-12-01T14:58:26.132Z,96.42
2022-12-01T14:59:29.279Z,96.43
2022-12-01T15:00:36.642Z,96.48
2022-12-01T15:01:40.946Z,96.52
2022-12-01T15:02:51.166Z,96.66
2022-12-01T15:03:59.366Z,96.68
2022-12-01T15:05:18.961Z,96.80
2022-12-01T15:06:24.901Z,96.84
2022-12-01T15:07:30.485Z,96.91
2022-12-01T15:08:53.254Z,96.92
2022-12-01T15:10:01.877Z,96.84
2022-12-01T15:11:11.078Z,97.16
2022-12-01T15:12:28.011Z,97.12
2022-12-01T15:13:54.687Z,97.11
2022-12-01T15:14:57.562Z,97.22
2022-12-01T15:16:13.753Z,97.17
2022-12-01T15:17:33.238Z,97.20
2022-12-01T15:18:37.014Z,97.18
2022-12-01T15:19:41.723Z,97.21
2022-12-01T15:20:47.789Z,97.40
2022-12-01T15:21:51.859Z,97.37
2022-12-01T15:22:56.405Z,97.39
2022-12-01T15:24:25.373Z,97.38
2022-12-01T15:25:35.665Z,97.69
2022-12-01T15:26:47.344Z,97.84
2022-12-01T15:28:16.748Z,97.86
2022-12-01T15:29:35.538Z,98.02
2022-12-01T15:30:43.318Z,97.97
2022-12-01T15:31:58.209Z,98.10
2022-12-01T15:33:01.919Z,98.16
2022-12-01T15:34:05.054Z,98.27
2022-12-01T15:35:24.513Z,98.18
2022-12-01T15:36:27.330Z,98.11
2022-12-01T15:37:42.233Z,98.05
2022-12-01T15:38:47.848Z,98.13
2022-12-01T15:39:53.699Z,98.16
2022-12-01T15:42:29.742Z,98.25
2022-12-01T15:43:38.898Z,98.38
2022-12-01T15:44:42.379Z,98.43
2022-12-01T15:45:50.596Z,98.41
2022-12-01T15:46:53.436Z,98.50
2022-12-01T15:47:56.114Z,98.71
2022-12-01T15:49:16.855Z,98.62
2022-12-01T15:50:31.161Z,98.63
2022-12-01T15:51:34.261Z,98.83
2022-12-01T15:52:44.070Z,98.92
2022-12-01T15:53:53.652Z,98.97
2022-12-01T15:55:02.316Z,99.07
2022-12-01T15:56:09.452Z,99.21
2022-12-01T15:57:18.478Z,99.33
2022-12-01T15:58:31.450Z,99.46
2022-12-01T15:59:44.637Z,99.58
2022-12-01T16:01:05.162Z,99.62
2022-12-01T16:02:25.038Z,99.75
2022-12-01T16:03:28.926Z,99.89
2022-12-01T16:04:32.472Z,99.96
2022-12-01T16:05:36.341Z,100.00
2022-12-01T16:06:40.631Z,100.00
2022-12-01T16:08:11.949Z,100.00
2022-12-01T16:09:23.202Z,100.00
2022-12-01T16:10:32.628Z,100.00
2022-12-01T16:11:37.355Z,100.00
2022-12-01T16:12:40.502Z,100.00
2022-12-01T16:13:55.853Z,100.00
2022-12-01T16:15:02.032Z,100.00
2022-12-01T16:16:42.042Z,100.00
2022-12-01T16:17:47.108Z,100.00
2022-12-01T16:19:22.718Z,100.00
2022-12-01T16:20:40.689Z,100.00
2022-12-01T16:22:05.302Z,100.00
2022-12-01T16:23:26.042Z,100.00
2022-12-01T16:24:34.485Z,100.00
2022-12-01T16:25:44.309Z,100.00
2022-12-01T16:26:52.400Z,100.00
2022-12-01T16:27:57.573Z,100.00
2022-12-01T16:29:01.588Z,100.00
2022-12-01T16:30:19.629Z,100.00
2022-12-01T16:31:22.938Z,100.00
2022-12-01T16:32:25.605Z,100.00
2022-12-01T16:33:29.877Z,100.00
2022-12-01T16:34:45.914Z,100.00
2022-12-01T16:35:53.627Z,100.00
2022-12-01T16:36:59.002Z,100.00
2022-12-01T16:38:16.394Z,100.00
2022-12-01T16:39:19.342Z,100.00
2022-12-01T16:40:22.597Z,100.00
2022-12-01T16:41:38.391Z,100.00
2022-12-01T16:42:42.178Z,100.00
2022-12-01T16:44:12.613Z,100.00
2022-12-01T16:45:15.136Z,100.00
2022-12-01T16:46:17.822Z,100.00
2022-12-01T16:47:24.974Z,100.00
2022-12-01T16:48:28.044Z,100.00
2022-12-01T16:49:31.381Z,100.00
2022-12-01T16:50:35.282Z,100.00
2022-12-01T16:51:55.281Z,100.00
2022-12-01T16:53:01.303Z,100.00
2022-12-01T16:54:07.301Z,100.00
2022-12-01T16:55:26.727Z,100.00
2022-12-01T16:56:30.040Z,100.00
2022-12-01T16:57:33.880Z,100.00
2022-12-01T16:58:37.561Z,100.00
2022-12-01T16:59:43.180Z,100.00
2022-12-01T17:00:52.840Z,100.00
2022-12-01T17:01:56.848Z,100.00
2022-12-01T17:03:00.655Z,100.00
2022-12-01T17:04:07.623Z,100.00
2022-12-01T17:05:11.739Z,100.00
2022-12-01T17:06:17.912Z,100.00
2022-12-01T17:07:21.533Z,100.00
2022-12-01T17:08:24.241Z,100.00
2022-12-01T17:09:30.616Z,100.00
2022-12-01T17:10:33.496Z,100.00
2022-12-01T17:11:36.417Z,100.00
2022-12-01T17:12:39.473Z,100.00
2022-12-01T17:13:42.561Z,100.00
2022-12-01T17:14:45.881Z,100.00
2022-12-01T17:15:50.554Z,100.00
2022-12-01T17:16:53.379Z,100.00
2022-12-01T17:17:55.939Z,100.00
2022-12-01T17:19:01.591Z,100.00
2022-12-01T17:20:07.162Z,100.00
2022-12-01T17:21:11.450Z,100.00
2022-12-01T17:22:14.267Z,100.00
2022-12-01T17:23:18.397Z,100.00
2022-12-01T17:24:21.096Z,100.00
2022-12-01T17:25:25.635Z,100.00
2022-12-01T17:26:29.197Z,100.00
2022-12-01T17:27:32.413Z,100.00
2022-12-01T17:28:37.482Z,100.00
2022-12-01T17:29:44.542Z,100.00
2022-12-01T17:30:48.959Z,100.00
2022-12-01T17:31:51.966Z,100.00
2022-12-01T17:32:54.564Z,100.00
2022-12-01T17:33:57.305Z,100.00
2022-12-01T17:34:59.912Z,100.00
2022-12-01T17:36:07.114Z,100.00
2022-12-01T17:37:10.481Z,100.00
2022-12-01T17:38:13.597Z,100.00
2022-12-01T17:39:16.655Z,100.00
2022-12-01T17:40:20.033Z,100.00
2022-12-01T17:41:24.927Z,100.00
2022-12-01T17:42:31.445Z,100.00
2022-12-01T17:43:35.886Z,100.00
2022-12-01T17:44:38.488Z,100.00
2022-12-01T17:45:43.411Z,100.00
2022-12-01T17:46:46.749Z,100.00
2022-12-01T17:47:50.062Z,100.00
2022-12-01T17:48:52.975Z,100.00
2022-12-01T17:49:56.227Z,100.00
2022-12-01T17:50:59.913Z,100.00
2022-12-01T17:52:07.153Z,100.00
2022-12-01T17:53:10.432Z,100.00
2022-12-01T17:54:13.472Z,100.00
2022-12-01T17:55:17.058Z,100.00
2022-12-01T17:56:20.113Z,100.00
2022-12-01T17:57:24.111Z,100.00
2022-12-01T17:58:27.763Z,100.00
2022-12-01T17:59:30.709Z,100.00
2022-12-01T18:00:33.667Z,100.00
2022-12-01T18:01:37.105Z,100.00
2022-12-01T18:02:40.193Z,100.00
2022-12-01T18:03:43.628Z,100.00
2022-12-01T18:04:47.109Z,100.00
2022-12-01T18:06:02.977Z,100.00
2022-12-01T18:07:07.844Z,100.00
2022-12-01T18:08:10.768Z,100.00
2022-12-01T18:09:13.920Z,100.00
2022-12-01T18:10:17.474Z,100.00
2022-12-01T18:11:20.957Z,100.00
2022-12-01T18:12:24.198Z,100.00
2022-12-01T18:13:27.420Z,100.00
2022-12-01T18:14:36.373Z,100.00
2022-12-01T18:15:50.860Z,100.00
2022-12-01T18:17:07.734Z,100.00
2022-12-01T18:18:17.684Z,100.00
2022-12-01T18:19:21.365Z,100.00
2022-12-01T18:20:24.637Z,100.00
2022-12-01T18:21:28.529Z,100.00
2022-12-01T18:22:32.061Z,100.00
2022-12-01T18:23:36.504Z,100.00
2022-12-01T18:24:39.654Z,100.00
2022-12-01T18:25:43.961Z,100.00
2022-12-01T18:26:47.044Z,100.00
2022-12-01T18:27:51.448Z,100.00
2022-12-01T18:29:02.162Z,100.00
2022-12-01T18:30:05.742Z,100.00
2022-12-01T18:31:15.904Z,100.00
2022-12-01T18:32:18.945Z,100.00
2022-12-01T18:33:21.768Z,100.00
2022-12-01T18:34:26.369Z,100.00
2022-12-01T18:35:31.931Z,100.00
2022-12-01T18:36:37.642Z,100.00
2022-12-01T18:37:40.894Z,100.00
2022-12-01T18:38:44.351Z,100.00
2022-12-01T18:39:47.728Z,100.00
2022-12-01T18:40:51.277Z,100.00
2022-12-01T18:41:54.621Z,100.00
2022-12-01T18:42:57.676Z,100.00
2022-12-01T18:44:02.361Z,100.00
2022-12-01T18:45:06.047Z,100.00
2022-12-01T18:46:12.467Z,100.00
2022-12-01T18:47:15.584Z,100.00
2022-12-01T18:48:19.177Z,100.00
2022-12-01T18:49:22.332Z,100.00
2022-12-01T18:50:25.429Z,100.00
2022-12-01T18:51:33.979Z,100.00